createdAt,value
2017-12-24T00:01:55.232Z,88.50
2017-12-24T00:04:24.332Z,88.60
2017-12-24T00:06:53.432Z,88.70
2017-12-24T00:09:22.573Z,88.60
2017-12-24T00:11:50.922Z,88.60
2017-12-24T00:14:20.318Z,88.70
2017-12-24T00:16:48.728Z,88.70
2017-12-24T00:19:17.068Z,88.60
2017-12-24T00:21:45.468Z,88.70
2017-12-24T00:24:13.808Z,88.50
2017-12-24T00:26:43.008Z,88.20
2017-12-24T00:29:12.112Z,88.40
2017-12-24T00:31:41.202Z,88.30
2017-12-24T00:34:10.318Z,88.10
2017-12-24T00:36:38.658Z,88.80
2017-12-24T00:39:06.987Z,88.20
2017-12-24T00:41:35.357Z,88.10
2017-12-24T00:44:03.684Z,88.10
2017-12-24T00:46:32.086Z,88.00
2017-12-24T00:49:01.210Z,87.90
2017-12-24T00:51:29.531Z,88.00
2017-12-24T00:53:57.876Z,88.10
2017-12-24T00:56:26.233Z,88.00
2017-12-24T00:58:54.554Z,87.90
2017-12-24T01:01:22.886Z,88.10
2017-12-24T01:03:52.073Z,88.20
2017-12-24T01:06:21.132Z,88.00
2017-12-24T01:08:49.942Z,88.00
2017-12-24T01:11:19.083Z,88.10
2017-12-24T01:13:47.412Z,88.00
2017-12-24T01:16:16.537Z,88.20
2017-12-24T01:18:44.892Z,88.20
2017-12-24T01:21:13.979Z,87.80
2017-12-24T01:23:43.104Z,87.90
2017-12-24T01:26:11.431Z,87.90
2017-12-24T01:28:39.794Z,87.50
2017-12-24T01:31:08.146Z,87.80
2017-12-24T01:33:36.474Z,87.70
2017-12-24T01:36:05.584Z,87.80
2017-12-24T01:38:33.941Z,87.80
2017-12-24T01:41:02.300Z,87.70
2017-12-24T01:43:30.629Z,87.70
2017-12-24T01:45:58.969Z,87.60
2017-12-24T01:48:27.327Z,87.80
2017-12-24T01:50:55.661Z,87.80
2017-12-24T01:53:24.003Z,87.80
2017-12-24T01:55:53.130Z,87.90
2017-12-24T01:58:22.148Z,87.40
2017-12-24T02:00:51.349Z,87.60
2017-12-24T02:03:20.186Z,87.60
2017-12-24T02:05:49.965Z,87.50
2017-12-24T02:08:18.308Z,87.50
2017-12-24T02:10:46.652Z,87.60
2017-12-24T02:13:15.766Z,87.70
2017-12-24T02:15:44.140Z,87.70
2017-12-24T02:18:12.488Z,87.70
2017-12-24T02:20:40.843Z,87.60
2017-12-24T02:23:09.179Z,87.40
2017-12-24T02:25:37.553Z,87.40
2017-12-24T02:28:05.860Z,87.50
2017-12-24T02:30:35.107Z,87.30
2017-12-24T02:33:04.209Z,87.70
2017-12-24T02:35:33.323Z,87.70
2017-12-24T02:38:01.660Z,87.70
2017-12-24T02:40:30.792Z,87.80
2017-12-24T02:42:59.111Z,88.20
2017-12-24T02:45:27.446Z,87.50
2017-12-24T02:47:55.804Z,87.70
2017-12-24T02:50:24.146Z,87.90
2017-12-24T02:52:52.476Z,87.70
2017-12-24T02:55:20.950Z,87.70
2017-12-24T02:57:49.854Z,87.70
2017-12-24T03:00:19.510Z,87.80
2017-12-24T03:02:47.835Z,87.80
2017-12-24T03:05:16.165Z,87.80
2017-12-24T03:07:45.272Z,87.70
2017-12-24T03:10:14.372Z,87.60
2017-12-24T03:12:43.489Z,87.60
2017-12-24T03:15:11.836Z,87.50
2017-12-24T03:17:40.919Z,87.50
2017-12-24T03:20:09.292Z,87.50
2017-12-24T03:22:37.628Z,87.40
2017-12-24T03:25:05.960Z,87.50
2017-12-24T03:27:35.072Z,87.60
2017-12-24T03:30:03.423Z,87.50
2017-12-24T03:32:31.964Z,87.30
2017-12-24T03:35:00.298Z,87.40
2017-12-24T03:37:29.397Z,87.60
2017-12-24T03:39:58.541Z,87.80
2017-12-24T03:42:26.873Z,87.80
2017-12-24T03:44:55.978Z,87.60
2017-12-24T03:47:24.328Z,87.60
2017-12-24T03:49:53.455Z,87.50
2017-12-24T03:52:21.813Z,87.50
2017-12-24T03:54:51.379Z,87.40
2017-12-24T03:57:20.184Z,87.40
2017-12-24T03:59:48.835Z,87.30
2017-12-24T04:02:17.166Z,87.20
2017-12-24T04:04:46.290Z,87.70
2017-12-24T04:07:14.616Z,87.70
2017-12-24T04:09:42.981Z,87.50
2017-12-24T04:12:11.340Z,88.20
2017-12-24T04:14:39.662Z,87.50
2017-12-24T04:17:08.776Z,87.50
2017-12-24T04:19:37.128Z,87.40
2017-12-24T04:22:06.223Z,87.50
2017-12-24T04:24:35.348Z,87.70
2017-12-24T04:27:03.680Z,87.70
2017-12-24T04:29:32.077Z,87.80
2017-12-24T04:32:01.165Z,87.70
2017-12-24T04:34:30.301Z,87.70
2017-12-24T04:36:58.657Z,87.70
2017-12-24T04:39:27.763Z,87.90
2017-12-24T04:41:56.115Z,88.00
2017-12-24T04:44:25.243Z,87.50
2017-12-24T04:46:53.578Z,87.50
2017-12-24T04:49:22.662Z,87.90
2017-12-24T04:51:51.014Z,87.50
2017-12-24T04:54:19.935Z,87.30
2017-12-24T04:56:48.278Z,87.60
2017-12-24T04:59:16.648Z,87.00
2017-12-24T05:01:44.989Z,87.50
2017-12-24T05:04:14.074Z,87.30
2017-12-24T05:06:43.177Z,87.50
2017-12-24T05:09:11.531Z,87.40
2017-12-24T05:11:39.882Z,87.30
2017-12-24T05:14:08.219Z,87.50
2017-12-24T05:16:36.539Z,87.50
2017-12-24T05:19:04.905Z,87.60
2017-12-24T05:21:33.245Z,87.40
2017-12-24T05:24:01.587Z,87.30
2017-12-24T05:26:29.917Z,87.20
2017-12-24T05:28:58.259Z,87.20
2017-12-24T05:31:27.368Z,87.20
2017-12-24T05:33:55.702Z,87.10
2017-12-24T05:36:24.041Z,87.00
2017-12-24T05:38:52.425Z,87.00
2017-12-24T05:41:21.648Z,87.20
2017-12-24T05:43:49.980Z,87.10
2017-12-24T05:46:18.330Z,87.20
2017-12-24T05:48:47.431Z,87.00
2017-12-24T05:51:16.528Z,86.90
2017-12-24T05:53:45.651Z,87.00
2017-12-24T05:56:13.990Z,87.10
2017-12-24T05:58:42.373Z,86.90
2017-12-24T06:01:10.921Z,86.80
2017-12-24T06:03:39.261Z,86.90
2017-12-24T06:06:07.614Z,86.80
2017-12-24T06:08:36.707Z,86.70
2017-12-24T06:11:05.795Z,87.00
2017-12-24T06:13:34.920Z,86.90
2017-12-24T06:16:03.255Z,86.90
2017-12-24T06:18:31.593Z,86.90
2017-12-24T06:20:59.940Z,87.70
2017-12-24T06:23:28.283Z,86.80
2017-12-24T06:25:56.631Z,86.90
2017-12-24T06:28:24.972Z,86.70
2017-12-24T06:30:53.313Z,86.70
2017-12-24T06:33:21.699Z,87.00
2017-12-24T06:35:50.029Z,87.00
2017-12-24T06:38:18.570Z,87.20
2017-12-24T06:40:48.199Z,87.10
2017-12-24T06:43:16.535Z,87.10
2017-12-24T06:45:44.885Z,87.30
2017-12-24T06:48:13.226Z,87.20
2017-12-24T06:50:41.569Z,87.30
2017-12-24T06:53:09.924Z,87.30
2017-12-24T06:55:38.263Z,87.20
2017-12-24T06:58:06.606Z,86.80
2017-12-24T07:00:34.933Z,87.00
2017-12-24T07:03:03.945Z,87.00
2017-12-24T07:05:32.323Z,87.00
2017-12-24T07:08:00.825Z,86.90
2017-12-24T07:10:29.169Z,86.90
2017-12-24T07:12:57.505Z,86.70
2017-12-24T07:15:26.635Z,86.70
2017-12-24T07:17:54.977Z,86.80
2017-12-24T07:20:24.064Z,87.20
2017-12-24T07:22:53.206Z,87.40
2017-12-24T07:25:22.521Z,87.40
2017-12-24T07:27:51.072Z,87.50
2017-12-24T07:30:19.695Z,88.00
2017-12-24T07:32:48.086Z,87.10
2017-12-24T07:35:16.454Z,87.10
2017-12-24T07:37:44.783Z,86.80
2017-12-24T07:40:13.121Z,86.80
2017-12-24T07:42:41.489Z,86.90
2017-12-24T07:45:09.828Z,86.80
2017-12-24T07:47:38.188Z,86.90
2017-12-24T07:50:06.528Z,86.90
2017-12-24T07:52:34.902Z,86.90
2017-12-24T07:55:03.230Z,86.70
2017-12-24T07:57:31.560Z,86.80
2017-12-24T08:00:00.681Z,86.80
2017-12-24T08:02:29.014Z,86.80
2017-12-24T08:04:57.362Z,86.70
2017-12-24T08:07:25.683Z,86.90
2017-12-24T08:09:54.794Z,87.10
2017-12-24T08:12:23.917Z,86.70
2017-12-24T08:14:52.243Z,86.70
2017-12-24T08:17:20.783Z,86.70
2017-12-24T08:19:49.695Z,86.60
2017-12-24T08:22:18.034Z,86.70
2017-12-24T08:24:46.355Z,86.60
2017-12-24T08:27:14.710Z,86.60
2017-12-24T08:29:43.031Z,86.40
2017-12-24T08:32:12.129Z,86.70
2017-12-24T08:34:41.252Z,86.80
2017-12-24T08:37:09.594Z,86.80
2017-12-24T08:39:37.940Z,86.90
2017-12-24T08:42:06.089Z,86.90
2017-12-24T08:44:34.439Z,86.80
2017-12-24T08:47:03.537Z,86.80
2017-12-24T08:49:31.884Z,86.80
2017-12-24T08:52:00.221Z,86.60
2017-12-24T08:54:28.582Z,86.60
2017-12-24T08:56:56.908Z,86.70
2017-12-24T08:59:25.244Z,86.70
2017-12-24T09:01:53.588Z,86.90
2017-12-24T09:04:22.689Z,86.30
2017-12-24T09:06:51.808Z,86.00
2017-12-24T09:09:20.149Z,86.00
2017-12-24T09:11:49.924Z,86.40
2017-12-24T09:14:18.282Z,86.40
2017-12-24T09:16:46.642Z,86.60
2017-12-24T09:19:14.989Z,86.30
2017-12-24T09:21:44.088Z,86.50
2017-12-24T09:24:13.208Z,86.50
2017-12-24T09:26:41.545Z,86.40
2017-12-24T09:29:09.875Z,86.40
2017-12-24T09:31:38.225Z,86.50
2017-12-24T09:34:06.572Z,86.40
2017-12-24T09:36:35.852Z,86.40
2017-12-24T09:39:03.357Z,86.30
2017-12-24T09:41:32.448Z,86.10
2017-12-24T09:44:01.564Z,86.00
2017-12-24T09:46:29.929Z,86.00
2017-12-24T09:48:58.247Z,86.10
2017-12-24T09:51:27.374Z,86.30
2017-12-24T09:53:55.727Z,86.30
2017-12-24T09:56:24.052Z,86.40
2017-12-24T09:58:52.401Z,86.20
2017-12-24T10:01:21.575Z,86.30
2017-12-24T10:03:50.566Z,86.40
2017-12-24T10:06:19.160Z,86.10
2017-12-24T10:08:47.509Z,86.00
2017-12-24T10:11:15.871Z,86.30
2017-12-24T10:13:44.196Z,86.50
2017-12-24T10:16:12.564Z,86.30
2017-12-24T10:18:40.894Z,86.10
2017-12-24T10:21:09.220Z,85.80
2017-12-24T10:23:37.584Z,85.70
2017-12-24T10:26:06.702Z,85.80
2017-12-24T10:28:35.049Z,85.80
2017-12-24T10:31:03.395Z,86.10
2017-12-24T10:33:31.723Z,86.00
2017-12-24T10:36:00.068Z,86.30
2017-12-24T10:38:28.409Z,86.00
2017-12-24T10:40:57.521Z,86.10
2017-12-24T10:43:25.877Z,86.10
2017-12-24T10:45:54.985Z,86.10
2017-12-24T10:48:23.340Z,86.00
2017-12-24T10:50:52.428Z,85.90
2017-12-24T10:53:21.472Z,85.90
2017-12-24T10:55:50.441Z,85.90
2017-12-24T10:58:19.147Z,85.60
2017-12-24T11:00:48.434Z,86.00
2017-12-24T11:03:16.769Z,86.00
2017-12-24T11:05:45.113Z,85.80
2017-12-24T11:08:13.463Z,85.90
2017-12-24T11:10:41.800Z,85.90
2017-12-24T11:13:10.148Z,85.80
2017-12-24T11:15:38.482Z,85.90
2017-12-24T11:18:07.580Z,86.00
2017-12-24T11:20:35.925Z,86.00
2017-12-24T11:23:04.308Z,86.10
2017-12-24T11:25:32.833Z,86.10
2017-12-24T11:28:01.171Z,86.00
2017-12-24T11:30:29.548Z,86.30
2017-12-24T11:32:57.879Z,86.20
2017-12-24T11:35:27.179Z,85.80
2017-12-24T11:37:55.347Z,86.10
2017-12-24T11:40:23.897Z,86.30
2017-12-24T11:42:53.024Z,86.00
2017-12-24T11:45:21.364Z,86.00
2017-12-24T11:47:50.894Z,86.30
2017-12-24T11:50:19.937Z,86.30
2017-12-24T11:52:48.282Z,86.00
2017-12-24T11:55:16.623Z,85.90
2017-12-24T11:57:44.960Z,85.80
2017-12-24T12:00:13.318Z,85.80
2017-12-24T12:02:42.416Z,86.10
2017-12-24T12:05:10.762Z,86.10
2017-12-24T12:07:39.100Z,86.10
2017-12-24T12:10:08.187Z,86.20
2017-12-24T12:12:36.527Z,86.00
2017-12-24T12:15:04.865Z,86.30
2017-12-24T12:17:33.997Z,85.90
2017-12-24T12:20:02.327Z,85.90
2017-12-24T12:22:31.431Z,85.70
2017-12-24T12:25:00.558Z,85.90
2017-12-24T12:27:28.905Z,85.80
2017-12-24T12:29:58.234Z,85.90
2017-12-24T12:32:26.549Z,85.90
2017-12-24T12:34:54.931Z,85.70
2017-12-24T12:37:23.261Z,85.70
2017-12-24T12:39:52.427Z,85.50
2017-12-24T12:42:22.225Z,85.40
2017-12-24T12:44:51.336Z,85.40
2017-12-24T12:47:20.247Z,85.40
2017-12-24T12:49:48.591Z,85.50
2017-12-24T12:52:17.692Z,85.50
2017-12-24T12:54:46.830Z,85.50
2017-12-24T12:57:15.147Z,85.50
2017-12-24T12:59:44.297Z,85.30
2017-12-24T13:02:12.648Z,85.40
2017-12-24T13:04:40.993Z,85.60
2017-12-24T13:07:09.339Z,85.40
2017-12-24T13:09:37.684Z,85.40
2017-12-24T13:12:06.030Z,85.40
2017-12-24T13:14:35.136Z,85.70
2017-12-24T13:17:03.911Z,85.60
2017-12-24T13:19:33.017Z,85.30
2017-12-24T13:22:02.148Z,85.30
2017-12-24T13:24:30.470Z,85.40
2017-12-24T13:26:59.553Z,85.50
2017-12-24T13:29:27.936Z,85.40
2017-12-24T13:31:56.282Z,85.50
2017-12-24T13:34:24.633Z,85.90
2017-12-24T13:36:52.968Z,85.50
2017-12-24T13:39:21.329Z,85.30
2017-12-24T13:41:50.261Z,85.50
2017-12-24T13:44:18.606Z,84.40
2017-12-24T13:46:46.949Z,85.50
2017-12-24T13:49:16.056Z,85.40
2017-12-24T13:51:44.400Z,85.40
2017-12-24T13:54:12.746Z,85.50
2017-12-24T13:56:41.844Z,85.40
2017-12-24T13:59:10.948Z,85.20
2017-12-24T14:01:39.283Z,85.20
2017-12-24T14:04:07.627Z,85.70
2017-12-24T14:06:35.970Z,85.50
2017-12-24T14:09:04.404Z,85.50
2017-12-24T14:11:32.757Z,85.50
2017-12-24T14:14:02.126Z,85.40
2017-12-24T14:16:31.234Z,85.80
2017-12-24T14:18:59.576Z,85.80
2017-12-24T14:21:27.907Z,85.60
2017-12-24T14:23:56.266Z,85.20
2017-12-24T14:26:24.600Z,85.70
2017-12-24T14:28:52.957Z,85.40
2017-12-24T14:31:21.317Z,85.30
2017-12-24T14:33:50.106Z,85.90
2017-12-24T14:36:18.437Z,85.90
2017-12-24T14:38:47.586Z,85.60
2017-12-24T14:41:15.751Z,85.60
2017-12-24T14:43:44.083Z,85.50
2017-12-24T14:46:13.210Z,86.00
2017-12-24T14:48:41.562Z,86.00
2017-12-24T14:51:09.923Z,86.00
2017-12-24T14:53:38.460Z,86.10
2017-12-24T14:56:06.797Z,86.10
2017-12-24T14:58:35.142Z,86.30
2017-12-24T15:01:03.522Z,86.00
2017-12-24T15:03:31.886Z,86.00
2017-12-24T15:06:00.242Z,85.30
2017-12-24T15:08:28.579Z,86.00
2017-12-24T15:10:56.911Z,86.30
2017-12-24T15:13:25.256Z,86.00
2017-12-24T15:15:53.585Z,85.90
2017-12-24T15:18:21.982Z,85.70
2017-12-24T15:20:50.327Z,85.90
2017-12-24T15:23:18.689Z,85.90
2017-12-24T15:25:47.032Z,85.80
2017-12-24T15:28:15.391Z,86.10
2017-12-24T15:30:43.732Z,85.70
2017-12-24T15:33:12.064Z,85.90
2017-12-24T15:35:40.459Z,86.20
2017-12-24T15:38:08.787Z,86.10
2017-12-24T15:40:37.887Z,86.30
2017-12-24T15:43:06.246Z,86.30
2017-12-24T15:45:35.349Z,86.10
2017-12-24T15:48:04.453Z,86.20
2017-12-24T15:50:33.581Z,85.70
2017-12-24T15:53:01.909Z,85.70
2017-12-24T15:55:32.008Z,86.20
2017-12-24T15:58:00.369Z,86.20
2017-12-24T16:00:28.706Z,86.00
2017-12-24T16:02:57.035Z,85.40
2017-12-24T16:05:25.389Z,86.00
2017-12-24T16:07:53.719Z,85.90
2017-12-24T16:10:22.052Z,86.10
2017-12-24T16:12:50.417Z,86.20
2017-12-24T16:15:18.753Z,86.00
2017-12-24T16:17:47.085Z,86.10
2017-12-24T16:20:15.441Z,85.90
2017-12-24T16:22:43.782Z,86.30
2017-12-24T16:25:12.133Z,86.40
2017-12-24T16:27:41.246Z,86.40
2017-12-24T16:30:10.370Z,86.30
2017-12-24T16:32:38.706Z,86.30
2017-12-24T16:35:07.813Z,86.10
2017-12-24T16:37:36.954Z,86.20
2017-12-24T16:40:05.470Z,86.20
2017-12-24T16:42:33.800Z,86.00
2017-12-24T16:45:02.147Z,85.80
2017-12-24T16:47:30.517Z,86.10
2017-12-24T16:49:59.620Z,86.20
2017-12-24T16:52:27.626Z,86.20
2017-12-24T16:54:55.981Z,86.50
2017-12-24T16:57:25.097Z,86.30
2017-12-24T16:59:53.420Z,86.30
2017-12-24T17:02:22.566Z,86.10
2017-12-24T17:04:50.926Z,86.20
2017-12-24T17:07:19.302Z,86.10
2017-12-24T17:09:47.643Z,86.30
2017-12-24T17:12:16.750Z,86.20
2017-12-24T17:14:45.097Z,86.20
2017-12-24T17:17:13.474Z,86.10
2017-12-24T17:19:41.842Z,86.10
2017-12-24T17:22:10.198Z,85.80
2017-12-24T17:24:38.554Z,85.80
2017-12-24T17:27:06.890Z,86.30
2017-12-24T17:29:35.996Z,86.40
2017-12-24T17:32:05.099Z,86.20
2017-12-24T17:34:33.452Z,86.20
2017-12-24T17:37:02.555Z,85.90
2017-12-24T17:39:31.690Z,86.10
2017-12-24T17:42:00.014Z,86.10
2017-12-24T17:44:28.363Z,86.20
2017-12-24T17:46:56.726Z,87.00
2017-12-24T17:49:25.051Z,86.40
2017-12-24T17:51:54.162Z,86.20
2017-12-24T17:54:22.518Z,86.20
2017-12-24T17:56:51.620Z,86.30
2017-12-24T17:59:21.629Z,86.10
2017-12-24T18:01:51.484Z,86.10
2017-12-24T18:04:21.370Z,86.30
2017-12-24T18:06:50.483Z,86.10
2017-12-24T18:09:18.809Z,86.10
2017-12-24T18:11:47.173Z,86.10
2017-12-24T18:14:15.613Z,86.20
2017-12-24T18:16:43.964Z,86.20
2017-12-24T18:19:13.064Z,86.30
2017-12-24T18:21:42.172Z,86.80
2017-12-24T18:24:10.512Z,86.10
2017-12-24T18:26:39.624Z,85.60
2017-12-24T18:29:08.728Z,86.40
2017-12-24T18:31:37.050Z,86.40
2017-12-24T18:34:05.393Z,86.30
2017-12-24T18:36:33.736Z,86.20
2017-12-24T18:39:02.662Z,86.50
2017-12-24T18:41:30.989Z,86.40
2017-12-24T18:43:59.369Z,86.20
2017-12-24T18:46:27.712Z,86.10
2017-12-24T18:48:56.066Z,86.80
2017-12-24T18:51:24.390Z,86.60
2017-12-24T18:53:52.723Z,86.90
2017-12-24T18:56:21.934Z,86.80
2017-12-24T18:58:50.881Z,86.40
2017-12-24T19:01:20.687Z,86.10
2017-12-24T19:03:50.813Z,86.10
2017-12-24T19:06:20.791Z,86.30
2017-12-24T19:08:49.517Z,86.30
2017-12-24T19:11:18.612Z,86.10
2017-12-24T19:13:46.961Z,86.10
2017-12-24T19:16:15.301Z,86.20
2017-12-24T19:18:43.641Z,86.20
2017-12-24T19:21:12.004Z,86.50
2017-12-24T19:23:41.110Z,86.20
2017-12-24T20:42:07.397Z,86.60
2017-12-24T20:44:35.945Z,88.30
2017-12-24T20:47:04.308Z,87.40
2017-12-24T20:49:32.648Z,87.50
2017-12-24T20:52:01.001Z,87.20
2017-12-24T20:54:30.114Z,87.00
2017-12-24T20:56:58.442Z,87.00
2017-12-24T20:59:26.781Z,87.20
2017-12-24T21:01:57.548Z,86.90
2017-12-24T21:04:25.906Z,87.00
2017-12-24T21:06:54.259Z,87.00
2017-12-24T21:09:22.606Z,86.90
2017-12-24T21:11:51.382Z,86.70
2017-12-24T21:14:20.494Z,86.80
2017-12-24T21:16:50.268Z,86.70
2017-12-24T21:19:18.620Z,86.70
2017-12-24T21:21:46.982Z,86.80
2017-12-24T21:24:15.323Z,86.50
2017-12-24T21:26:44.449Z,86.40
2017-12-24T21:29:12.785Z,86.40
2017-12-24T21:31:41.910Z,87.20
2017-12-24T21:34:10.243Z,86.40
2017-12-24T21:36:38.581Z,86.50
2017-12-24T21:39:07.183Z,86.40
2017-12-24T21:41:35.516Z,86.40
2017-12-24T21:44:03.869Z,86.40
2017-12-24T21:46:32.963Z,86.10
2017-12-24T21:49:02.062Z,85.90
2017-12-24T21:51:31.185Z,86.20
2017-12-24T21:53:59.515Z,86.20
2017-12-24T21:56:27.860Z,86.00
2017-12-24T21:58:56.212Z,86.00
2017-12-24T22:01:24.557Z,86.10
2017-12-24T22:03:53.668Z,86.00
2017-12-24T22:06:22.918Z,86.00
2017-12-24T22:08:52.089Z,86.10
2017-12-24T22:11:20.918Z,86.30
2017-12-24T22:13:49.558Z,85.90
2017-12-24T22:16:18.114Z,85.90
2017-12-24T22:18:47.208Z,86.10
2017-12-24T22:21:15.549Z,86.10
2017-12-24T22:23:43.905Z,86.20
2017-12-24T22:26:12.235Z,86.00
2017-12-24T22:28:40.574Z,85.90
2017-12-24T22:31:08.921Z,85.60
2017-12-24T22:33:37.273Z,85.90
2017-12-24T22:36:05.629Z,85.40
2017-12-24T22:38:34.762Z,85.80
2017-12-24T22:41:03.104Z,85.70
2017-12-24T22:43:32.246Z,85.80
2017-12-24T22:46:01.377Z,86.40
2017-12-24T22:48:29.737Z,86.40
2017-12-24T22:50:58.088Z,86.50
2017-12-24T22:53:26.429Z,86.70
2017-12-24T22:55:55.557Z,86.70
2017-12-24T22:58:23.884Z,86.70
2017-12-24T23:00:52.998Z,86.70
2017-12-24T23:03:22.924Z,86.40
2017-12-24T23:05:52.105Z,86.40
2017-12-24T23:08:21.924Z,86.70
2017-12-24T23:10:50.263Z,86.70
2017-12-24T23:13:18.639Z,86.80
2017-12-24T23:15:47.010Z,86.70
2017-12-24T23:18:15.356Z,86.70
2017-12-24T23:20:43.809Z,86.60
2017-12-24T23:23:12.157Z,87.00
2017-12-24T23:25:40.506Z,86.80
2017-12-24T23:28:08.874Z,87.60
2017-12-24T23:30:37.223Z,86.50
2017-12-24T23:33:05.562Z,86.30
2017-12-24T23:35:33.927Z,86.20
2017-12-24T23:38:02.300Z,86.10
2017-12-24T23:40:30.661Z,86.20
2017-12-24T23:42:58.991Z,86.10
2017-12-24T23:45:28.129Z,86.40
2017-12-24T23:47:56.483Z,86.40
2017-12-24T23:50:24.832Z,86.30
2017-12-24T23:52:53.950Z,86.40
2017-12-24T23:55:22.316Z,86.40
2017-12-24T23:57:50.643Z,86.50
